sensor_id;sensor_type;location;lat;lon;timestamp;P1;durP1;ratioP1;P2;durP2;ratioP2
57335;SDS011;43171;50.994;18.204;2024-03-29T00:05:53;3.80;;;2.00;;
57335;SDS011;43171;50.994;18.204;2024-03-29T00:15:37;1.00;;;1.00;;
57335;SDS011;43171;50.994;18.204;2024-03-29T00:25:19;3.80;;;2.40;;
57335;SDS011;43171;50.994;18.204;2024-03-29T00:35:01;3.40;;;1.50;;
57335;SDS011;43171;50.994;18.204;2024-03-29T00:44:44;2.10;;;1.90;;
57335;SDS011;43171;50.994;18.204;2024-03-29T00:54:27;2.40;;;2.20;;
57335;SDS011;43171;50.994;18.204;2024-03-29T01:04:10;4.10;;;2.30;;
57335;SDS011;43171;50.994;18.204;2024-03-29T01:13:54;1.70;;;1.70;;
57335;SDS011;43171;50.994;18.204;2024-03-29T01:23:37;3.20;;;2.90;;
57335;SDS011;43171;50.994;18.204;2024-03-29T01:33:20;2.70;;;2.50;;
57335;SDS011;43171;50.994;18.204;2024-03-29T01:43:02;3.50;;;3.20;;
57335;SDS011;43171;50.994;18.204;2024-03-29T01:52:45;7.70;;;5.40;;
57335;SDS011;43171;50.994;18.204;2024-03-29T02:02:30;4.20;;;3.60;;
57335;SDS011;43171;50.994;18.204;2024-03-29T02:12:13;6.80;;;4.70;;
57335;SDS011;43171;50.994;18.204;2024-03-29T02:21:58;5.40;;;3.10;;
57335;SDS011;43171;50.994;18.204;2024-03-29T02:31:43;6.40;;;3.80;;
57335;SDS011;43171;50.994;18.204;2024-03-29T02:41:25;4.00;;;3.30;;
57335;SDS011;43171;50.994;18.204;2024-03-29T02:51:08;4.00;;;3.60;;
57335;SDS011;43171;50.994;18.204;2024-03-29T03:00:49;3.60;;;2.80;;
57335;SDS011;43171;50.994;18.204;2024-03-29T03:10:51;4.00;;;3.30;;
57335;SDS011;43171;50.994;18.204;2024-03-29T03:20:49;13.30;;;3.00;;
57335;SDS011;43171;50.994;18.204;2024-03-29T03:30:39;4.00;;;3.10;;
57335;SDS011;43171;50.994;18.204;2024-03-29T03:40:22;4.20;;;3.60;;
57335;SDS011;43171;50.994;18.204;2024-03-29T03:50:05;1.10;;;1.10;;
57335;SDS011;43171;50.994;18.204;2024-03-29T03:59:49;4.20;;;2.90;;
57335;SDS011;43171;50.994;18.204;2024-03-29T04:09:31;3.20;;;2.20;;
57335;SDS011;43171;50.994;18.204;2024-03-29T04:19:12;11.00;;;2.50;;
57335;SDS011;43171;50.994;18.204;2024-03-29T04:21:38;3.90;;;2.70;;
57335;SDS011;43171;50.994;18.204;2024-03-29T04:31:19;2.40;;;2.20;;
57335;SDS011;43171;50.994;18.204;2024-03-29T04:41:01;2.00;;;1.80;;
57335;SDS011;43171;50.994;18.204;2024-03-29T04:50:57;4.90;;;3.00;;
57335;SDS011;43171;50.994;18.204;2024-03-29T05:20:26;3.80;;;3.50;;
57335;SDS011;43171;50.994;18.204;2024-03-29T05:22:51;5.40;;;4.40;;
57335;SDS011;43171;50.994;18.204;2024-03-29T05:32:35;2.80;;;2.60;;
57335;SDS011;43171;50.994;18.204;2024-03-29T05:42:29;2.70;;;2.00;;
57335;SDS011;43171;50.994;18.204;2024-03-29T05:52:14;3.30;;;2.40;;
57335;SDS011;43171;50.994;18.204;2024-03-29T06:01:57;5.70;;;3.10;;
57335;SDS011;43171;50.994;18.204;2024-03-29T06:11:45;2.50;;;2.20;;
57335;SDS011;43171;50.994;18.204;2024-03-29T06:21:45;6.30;;;2.10;;
57335;SDS011;43171;50.994;18.204;2024-03-29T06:31:31;2.40;;;1.80;;
57335;SDS011;43171;50.994;18.204;2024-03-29T06:41:14;5.60;;;3.70;;
57335;SDS011;43171;50.994;18.204;2024-03-29T06:43:41;18.70;;;6.20;;
57335;SDS011;43171;50.994;18.204;2024-03-29T06:53:25;12.00;;;2.60;;
57335;SDS011;43171;50.994;18.204;2024-03-29T07:03:09;6.70;;;2.00;;
57335;SDS011;43171;50.994;18.204;2024-03-29T07:12:52;2.50;;;1.90;;
57335;SDS011;43171;50.994;18.204;2024-03-29T07:15:17;6.00;;;2.80;;
57335;SDS011;43171;50.994;18.204;2024-03-29T07:25:00;1.90;;;1.50;;
57335;SDS011;43171;50.994;18.204;2024-03-29T07:27:26;3.20;;;1.80;;
57335;SDS011;43171;50.994;18.204;2024-03-29T07:37:09;4.40;;;1.60;;
57335;SDS011;43171;50.994;18.204;2024-03-29T07:46:56;7.60;;;1.70;;
57335;SDS011;43171;50.994;18.204;2024-03-29T07:56:39;4.00;;;2.30;;
57335;SDS011;43171;50.994;18.204;2024-03-29T08:06:21;7.10;;;2.00;;
57335;SDS011;43171;50.994;18.204;2024-03-29T08:16:05;1.00;;;0.80;;
57335;SDS011;43171;50.994;18.204;2024-03-29T08:18:31;1.90;;;1.30;;
57335;SDS011;43171;50.994;18.204;2024-03-29T08:28:17;1.40;;;1.20;;
57335;SDS011;43171;50.994;18.204;2024-03-29T08:45:24;2.30;;;1.40;;
57335;SDS011;43171;50.994;18.204;2024-03-29T08:55:06;1.50;;;1.20;;
57335;SDS011;43171;50.994;18.204;2024-03-29T09:04:49;5.10;;;0.80;;
57335;SDS011;43171;50.994;18.204;2024-03-29T09:07:14;3.30;;;1.30;;
57335;SDS011;43171;50.994;18.204;2024-03-29T09:16:59;1.30;;;1.20;;
57335;SDS011;43171;50.994;18.204;2024-03-29T09:26:43;0.60;;;0.60;;
57335;SDS011;43171;50.994;18.204;2024-03-29T09:36:25;2.50;;;0.50;;
57335;SDS011;43171;50.994;18.204;2024-03-29T09:46:12;7.10;;;0.80;;
57335;SDS011;43171;50.994;18.204;2024-03-29T09:56:03;0.40;;;0.40;;
57335;SDS011;43171;50.994;18.204;2024-03-29T10:13:19;0.20;;;0.20;;
57335;SDS011;43171;50.994;18.204;2024-03-29T10:23:05;0.70;;;0.50;;
57335;SDS011;43171;50.994;18.204;2024-03-29T10:32:55;0.10;;;0.10;;
57335;SDS011;43171;50.994;18.204;2024-03-29T10:42:42;0.50;;;0.50;;
57335;SDS011;43171;50.994;18.204;2024-03-29T10:52:26;0.10;;;0.10;;
57335;SDS011;43171;50.994;18.204;2024-03-29T11:02:33;0.20;;;0.20;;
57335;SDS011;43171;50.994;18.204;2024-03-29T11:12:24;5.10;;;0.40;;
57335;SDS011;43171;50.994;18.204;2024-03-29T11:22:13;0.60;;;0.50;;
57335;SDS011;43171;50.994;18.204;2024-03-29T11:32:06;3.50;;;0.80;;
57335;SDS011;43171;50.994;18.204;2024-03-29T11:42:00;0.00;;;0.00;;
57335;SDS011;43171;50.994;18.204;2024-03-29T11:51:42;1.60;;;0.70;;
57335;SDS011;43171;50.994;18.204;2024-03-29T12:01:27;1.20;;;1.20;;
57335;SDS011;43171;50.994;18.204;2024-03-29T12:11:10;0.80;;;0.30;;
57335;SDS011;43171;50.994;18.204;2024-03-29T12:20:57;0.50;;;0.30;;
57335;SDS011;43171;50.994;18.204;2024-03-29T12:30:44;3.30;;;0.50;;
57335;SDS011;43171;50.994;18.204;2024-03-29T12:40:35;0.00;;;0.00;;
57335;SDS011;43171;50.994;18.204;2024-03-29T13:00:19;0.50;;;0.20;;
57335;SDS011;43171;50.994;18.204;2024-03-29T13:10:02;0.30;;;0.30;;
57335;SDS011;43171;50.994;18.204;2024-03-29T13:19:55;1.30;;;0.40;;
57335;SDS011;43171;50.994;18.204;2024-03-29T13:29:38;0.50;;;0.50;;
57335;SDS011;43171;50.994;18.204;2024-03-29T13:36:54;1.30;;;0.40;;
57335;SDS011;43171;50.994;18.204;2024-03-29T13:46:42;1.70;;;0.40;;
57335;SDS011;43171;50.994;18.204;2024-03-29T13:56:25;4.70;;;0.60;;
57335;SDS011;43171;50.994;18.204;2024-03-29T14:06:08;0.80;;;0.40;;
57335;SDS011;43171;50.994;18.204;2024-03-29T14:15:52;1.80;;;0.70;;
57335;SDS011;43171;50.994;18.204;2024-03-29T14:20:43;1.80;;;0.90;;
57335;SDS011;43171;50.994;18.204;2024-03-29T14:30:29;0.90;;;0.60;;
57335;SDS011;43171;50.994;18.204;2024-03-29T14:40:12;1.90;;;0.70;;
57335;SDS011;43171;50.994;18.204;2024-03-29T14:50:02;3.70;;;0.50;;
57335;SDS011;43171;50.994;18.204;2024-03-29T14:59:50;0.00;;;0.00;;
57335;SDS011;43171;50.994;18.204;2024-03-29T15:09:33;0.60;;;0.60;;
57335;SDS011;43171;50.994;18.204;2024-03-29T15:26:38;0.20;;;0.20;;
57335;SDS011;43171;50.994;18.204;2024-03-29T15:36:31;4.50;;;2.60;;
57335;SDS011;43171;50.994;18.204;2024-03-29T15:46:24;3.60;;;2.20;;
57335;SDS011;43171;50.994;18.204;2024-03-29T15:56:07;6.50;;;4.40;;
57335;SDS011;43171;50.994;18.204;2024-03-29T16:05:49;4.50;;;2.30;;
57335;SDS011;43171;50.994;18.204;2024-03-29T16:15:40;4.30;;;1.00;;
57335;SDS011;43171;50.994;18.204;2024-03-29T16:25:22;5.00;;;2.80;;
57335;SDS011;43171;50.994;18.204;2024-03-29T16:35:07;3.90;;;1.90;;
57335;SDS011;43171;50.994;18.204;2024-03-29T16:44:50;6.60;;;2.40;;
57335;SDS011;43171;50.994;18.204;2024-03-29T16:47:16;6.20;;;2.90;;
57335;SDS011;43171;50.994;18.204;2024-03-29T16:56:57;9.20;;;2.80;;
57335;SDS011;43171;50.994;18.204;2024-03-29T17:06:41;11.30;;;3.30;;
57335;SDS011;43171;50.994;18.204;2024-03-29T17:09:06;7.50;;;3.30;;
57335;SDS011;43171;50.994;18.204;2024-03-29T17:18:48;6.10;;;3.40;;
57335;SDS011;43171;50.994;18.204;2024-03-29T17:28:30;3.80;;;2.80;;
57335;SDS011;43171;50.994;18.204;2024-03-29T17:30:55;6.10;;;3.00;;
57335;SDS011;43171;50.994;18.204;2024-03-29T17:40:37;4.10;;;2.40;;
57335;SDS011;43171;50.994;18.204;2024-03-29T17:50:19;4.80;;;1.80;;
57335;SDS011;43171;50.994;18.204;2024-03-29T18:00:01;4.60;;;3.20;;
57335;SDS011;43171;50.994;18.204;2024-03-29T18:09:47;4.50;;;2.60;;
57335;SDS011;43171;50.994;18.204;2024-03-29T18:12:13;8.00;;;4.00;;
57335;SDS011;43171;50.994;18.204;2024-03-29T18:21:55;8.20;;;3.60;;
57335;SDS011;43171;50.994;18.204;2024-03-29T18:31:37;1.50;;;1.40;;
57335;SDS011;43171;50.994;18.204;2024-03-29T18:41:19;4.80;;;2.30;;
57335;SDS011;43171;50.994;18.204;2024-03-29T18:51:05;2.70;;;0.70;;
57335;SDS011;43171;50.994;18.204;2024-03-29T19:00:51;4.70;;;2.60;;
57335;SDS011;43171;50.994;18.204;2024-03-29T19:10:34;5.50;;;3.30;;
57335;SDS011;43171;50.994;18.204;2024-03-29T19:20:17;3.40;;;2.50;;
57335;SDS011;43171;50.994;18.204;2024-03-29T19:30:01;5.20;;;3.00;;
57335;SDS011;43171;50.994;18.204;2024-03-29T19:39:43;6.20;;;3.00;;
57335;SDS011;43171;50.994;18.204;2024-03-29T19:49:25;6.70;;;3.40;;
57335;SDS011;43171;50.994;18.204;2024-03-29T19:59:07;1.00;;;1.00;;
57335;SDS011;43171;50.994;18.204;2024-03-29T20:08:49;16.00;;;8.70;;
57335;SDS011;43171;50.994;18.204;2024-03-29T20:18:33;12.80;;;7.90;;
57335;SDS011;43171;50.994;18.204;2024-03-29T20:28:15;7.40;;;4.70;;
57335;SDS011;43171;50.994;18.204;2024-03-29T20:38:06;17.50;;;8.40;;
57335;SDS011;43171;50.994;18.204;2024-03-29T20:47:50;7.60;;;3.70;;
57335;SDS011;43171;50.994;18.204;2024-03-29T20:57:33;4.30;;;3.30;;
57335;SDS011;43171;50.994;18.204;2024-03-29T21:07:53;7.60;;;5.20;;
57335;SDS011;43171;50.994;18.204;2024-03-29T21:17:36;7.50;;;4.00;;
57335;SDS011;43171;50.994;18.204;2024-03-29T21:27:34;8.90;;;2.30;;
57335;SDS011;43171;50.994;18.204;2024-03-29T21:37:16;3.00;;;2.70;;
57335;SDS011;43171;50.994;18.204;2024-03-29T21:47:02;9.50;;;4.90;;
57335;SDS011;43171;50.994;18.204;2024-03-29T21:56:46;10.70;;;3.80;;
57335;SDS011;43171;50.994;18.204;2024-03-29T22:06:28;20.20;;;7.80;;
57335;SDS011;43171;50.994;18.204;2024-03-29T22:16:12;17.10;;;7.90;;
57335;SDS011;43171;50.994;18.204;2024-03-29T22:18:38;16.00;;;7.50;;
57335;SDS011;43171;50.994;18.204;2024-03-29T22:28:20;11.30;;;4.20;;
57335;SDS011;43171;50.994;18.204;2024-03-29T22:30:45;12.80;;;6.00;;
57335;SDS011;43171;50.994;18.204;2024-03-29T22:40:29;5.10;;;3.30;;
57335;SDS011;43171;50.994;18.204;2024-03-29T22:50:10;4.60;;;3.50;;
57335;SDS011;43171;50.994;18.204;2024-03-29T22:59:52;6.80;;;4.00;;
57335;SDS011;43171;50.994;18.204;2024-03-29T23:09:35;12.50;;;4.20;;
57335;SDS011;43171;50.994;18.204;2024-03-29T23:26:38;12.00;;;4.00;;
57335;SDS011;43171;50.994;18.204;2024-03-29T23:36:20;8.40;;;4.00;;
57335;SDS011;43171;50.994;18.204;2024-03-29T23:46:03;5.10;;;3.40;;
57335;SDS011;43171;50.994;18.204;2024-03-29T23:55:50;6.30;;;3.30;;
